Time;durP1;ratioP1;P1;durP2;ratioP2;P2;SDS_P1;SDS_P2;PMS_P1;PMS_P2;Temp;Humidity;BMP_temperature;BMP_pressure;BME280_temperature;BME280_humidity;BME280_pressure;Samples;Min_cycle;Max_cycle;Signal;HPM_P1;HPM_P2
2022/01/09 00:01:37;;;;;;;7.05;3.20;;;-4.50;99.90;;;;;;5053533;28;20108;-70
2022/01/09 00:04:02;;;;;;;6.80;3.45;;;-4.50;99.90;;;;;;5052529;28;20021;-70
2022/01/09 00:06:28;;;;;;;5.55;3.05;;;-4.60;99.90;;;;;;5053974;28;20108;-70
2022/01/09 00:08:54;;;;;;;7.72;3.95;;;-4.70;99.90;;;;;;5053706;28;20477;-70
2022/01/09 00:11:26;;;;;;;8.90;3.45;;;-4.70;99.90;;;;;;5053624;28;20425;-70
2022/01/09 00:13:55;;;;;;;8.30;3.53;;;-4.70;99.90;;;;;;5053939;28;20021;-70
2022/01/09 00:16:23;;;;;;;5.30;2.90;;;-4.70;99.90;;;;;;5053393;28;20057;-70
2022/01/09 00:18:50;;;;;;;6.18;3.55;;;-4.70;99.90;;;;;;5053568;28;20096;-70
2022/01/09 00:21:17;;;;;;;7.20;3.58;;;-4.70;99.90;;;;;;5053391;28;20059;-70
2022/01/09 00:23:45;;;;;;;6.75;3.72;;;-4.70;99.90;;;;;;5053373;28;20120;-70
2022/01/09 00:26:11;;;;;;;7.68;3.53;;;-4.80;99.90;;;;;;5053399;28;20024;-70
2022/01/09 00:28:36;;;;;;;8.20;3.35;;;-4.80;99.90;;;;;;5052828;28;20025;-70
2022/01/09 00:31:02;;;;;;;5.95;3.25;;;-4.80;99.90;;;;;;5053223;28;20023;-70
2022/01/09 00:33:28;;;;;;;6.88;3.00;;;-4.80;99.90;;;;;;5053909;28;20104;-70
2022/01/09 00:35:54;;;;;;;5.80;3.03;;;-4.80;99.90;;;;;;5053587;28;20028;-70
2022/01/09 00:38:20;;;;;;;5.63;3.00;;;-4.70;99.90;;;;;;5053334;28;20102;-70
2022/01/09 00:40:46;;;;;;;4.13;2.65;;;-4.70;99.90;;;;;;5053246;28;20496;-70
2022/01/09 00:43:12;;;;;;;6.57;3.10;;;-4.70;99.90;;;;;;5051951;28;20037;-70
2022/01/09 00:45:40;;;;;;;7.28;3.47;;;-4.60;99.90;;;;;;5052976;28;20500;-70
2022/01/09 00:48:06;;;;;;;8.70;3.55;;;-4.70;99.90;;;;;;5053452;28;20480;-70
2022/01/09 00:50:33;;;;;;;5.85;3.40;;;-4.60;99.90;;;;;;5053140;28;20501;-70
2022/01/09 00:52:59;;;;;;;7.72;3.28;;;-4.60;99.90;;;;;;5053082;28;20021;-70
2022/01/09 00:55:25;;;;;;;7.45;3.28;;;-4.50;99.90;;;;;;5053128;28;20029;-70
2022/01/09 00:57:51;;;;;;;7.88;3.35;;;-4.60;99.90;;;;;;5053130;28;20028;-70
2022/01/09 01:00:17;;;;;;;7.75;3.28;;;-4.60;99.90;;;;;;5053373;28;20021;-70
2022/01/09 01:02:43;;;;;;;6.30;2.95;;;-4.60;99.90;;;;;;5052868;28;20040;-70
2022/01/09 01:05:10;;;;;;;5.70;3.08;;;-4.50;99.90;;;;;;5053174;28;20025;-70
2022/01/09 01:07:35;;;;;;;9.70;3.03;;;-4.50;99.90;;;;;;5053085;28;20485;-70
2022/01/09 01:10:02;;;;;;;5.82;3.20;;;-4.50;99.90;;;;;;5053250;28;20083;-70
2022/01/09 01:12:30;;;;;;;5.25;2.83;;;-4.50;99.90;;;;;;5051621;28;20443;-70
2022/01/09 01:14:57;;;;;;;6.57;3.13;;;-4.50;99.90;;;;;;5053308;28;20071;-70
2022/01/09 01:17:23;;;;;;;6.65;3.08;;;-4.50;99.90;;;;;;5052733;28;20032;-70
2022/01/09 01:19:50;;;;;;;9.95;3.33;;;-4.50;99.90;;;;;;5051589;28;20051;-70
2022/01/09 01:22:16;;;;;;;5.88;3.38;;;-4.50;99.90;;;;;;5052967;28;20033;-70
2022/01/09 01:24:46;;;;;;;7.38;3.60;;;-4.50;99.90;;;;;;5052715;28;20043;-70
2022/01/09 01:27:12;;;;;;;6.80;3.17;;;-4.40;99.90;;;;;;5052756;28;20029;-70
2022/01/09 01:29:38;;;;;;;6.30;3.10;;;-4.50;99.90;;;;;;5052779;28;20017;-70
2022/01/09 01:32:05;;;;;;;4.88;2.70;;;-4.40;99.90;;;;;;5052842;28;20070;-70
2022/01/09 01:34:33;;;;;;;5.15;2.47;;;-4.40;99.90;;;;;;5052731;28;20159;-70
2022/01/09 01:36:58;;;;;;;6.40;2.88;;;-4.40;99.90;;;;;;5051489;28;20423;-70
2022/01/09 01:39:24;;;;;;;7.93;3.00;;;-4.40;99.90;;;;;;5054070;28;20028;-70
2022/01/09 01:41:50;;;;;;;5.18;2.85;;;-4.40;99.90;;;;;;5056617;28;20021;-70
2022/01/09 01:44:15;;;;;;;3.97;2.38;;;-4.40;99.90;;;;;;5055136;28;20029;-70
2022/01/09 01:46:41;;;;;;;4.70;2.55;;;-4.40;99.90;;;;;;5056083;28;20099;-70
2022/01/09 01:49:10;;;;;;;4.63;2.15;;;-4.40;99.90;;;;;;5056286;28;20501;-70
2022/01/09 01:51:43;;;;;;;4.07;2.15;;;-4.30;99.90;;;;;;5056308;28;20017;-70
2022/01/09 01:54:10;;;;;;;5.22;2.60;;;-4.30;99.90;;;;;;5056622;28;20416;-70
2022/01/09 01:56:37;;;;;;;6.82;3.10;;;-4.30;99.90;;;;;;5056211;28;20031;-70
2022/01/09 01:59:02;;;;;;;4.70;2.80;;;-4.30;99.90;;;;;;5056151;28;20024;-70
2022/01/09 02:01:29;;;;;;;6.30;2.88;;;-4.30;99.90;;;;;;5056034;28;20543;-70
2022/01/09 02:03:54;;;;;;;6.47;2.83;;;-4.30;99.90;;;;;;5056036;28;20029;-70
2022/01/09 02:06:21;;;;;;;6.80;2.65;;;-4.20;99.90;;;;;;5055971;28;20064;-70
2022/01/09 02:08:47;;;;;;;6.25;2.70;;;-4.20;99.90;;;;;;5054741;28;20027;-70
2022/01/09 02:11:13;;;;;;;7.32;2.85;;;-4.20;99.90;;;;;;5055850;28;20100;-70
2022/01/09 02:13:40;;;;;;;6.25;3.05;;;-4.10;99.90;;;;;;5056437;28;20017;-70
2022/01/09 02:16:16;;;;;;;5.82;3.08;;;-4.10;99.90;;;;;;5055591;28;20021;-70
2022/01/09 02:18:43;;;;;;;8.50;3.30;;;-4.10;99.90;;;;;;5056367;28;20385;-70
2022/01/09 02:21:10;;;;;;;4.78;2.42;;;-4.10;99.90;;;;;;5055683;28;20496;-70
2022/01/09 02:23:38;;;;;;;4.22;2.22;;;-4.10;99.90;;;;;;5055829;28;20397;-70
2022/01/09 02:26:04;;;;;;;5.05;2.88;;;-4.10;99.90;;;;;;5055559;28;20025;-70
2022/01/09 02:28:29;;;;;;;4.32;2.47;;;-4.00;99.90;;;;;;5055609;28;20092;-70
2022/01/09 02:30:55;;;;;;;4.88;2.50;;;-4.00;99.90;;;;;;5055319;28;20021;-70
2022/01/09 02:33:21;;;;;;;4.22;2.13;;;-4.00;99.90;;;;;;5055745;28;20099;-70
2022/01/09 02:35:51;;;;;;;6.15;3.10;;;-4.00;99.90;;;;;;5055764;28;20036;-70
2022/01/09 02:38:18;;;;;;;6.32;2.80;;;-3.90;99.90;;;;;;5055753;28;20481;-70
2022/01/09 02:40:48;;;;;;;5.82;2.20;;;-3.90;99.90;;;;;;5055675;28;20049;-70
2022/01/09 02:43:14;;;;;;;8.53;2.30;;;-3.90;99.90;;;;;;5055623;28;20025;-70
2022/01/09 02:45:40;;;;;;;4.03;2.08;;;-3.90;99.90;;;;;;5055168;28;20279;-70
2022/01/09 02:48:08;;;;;;;4.93;2.30;;;-3.80;99.90;;;;;;5055028;28;20024;-70
2022/01/09 02:50:55;;;;;;;6.45;2.97;;;-3.90;99.90;;;;;;5055280;28;20021;-70
2022/01/09 02:53:21;;;;;;;5.95;2.28;;;-3.80;99.90;;;;;;5055223;28;20021;-70
2022/01/09 02:55:47;;;;;;;4.43;2.00;;;-3.80;99.90;;;;;;5055086;28;20424;-70
2022/01/09 02:58:14;;;;;;;6.15;2.58;;;-3.80;99.90;;;;;;5055374;28;20017;-70
2022/01/09 03:00:44;;;;;;;4.32;1.90;;;-3.80;99.90;;;;;;5055007;28;20021;-70
2022/01/09 03:03:12;;;;;;;6.53;2.63;;;-3.70;99.90;;;;;;5054722;28;20032;-70
2022/01/09 03:05:38;;;;;;;6.30;2.50;;;-3.70;99.90;;;;;;5054849;28;20469;-70
2022/01/09 03:08:04;;;;;;;4.53;2.33;;;-3.70;99.90;;;;;;5054831;28;20040;-70
2022/01/09 03:10:29;;;;;;;5.55;2.55;;;-3.70;99.90;;;;;;5053526;28;20027;-70
2022/01/09 03:12:57;;;;;;;3.70;2.20;;;-3.60;99.90;;;;;;5053468;28;20104;-70
2022/01/09 03:15:23;;;;;;;5.68;2.70;;;-3.60;99.90;;;;;;5054688;28;20027;-70
2022/01/09 03:17:49;;;;;;;4.43;2.25;;;-3.60;99.90;;;;;;5054993;28;20017;-70
2022/01/09 03:20:18;;;;;;;6.30;2.30;;;-3.50;99.90;;;;;;5054623;28;20104;-70
2022/01/09 03:22:44;;;;;;;5.63;3.20;;;-3.50;99.90;;;;;;5054545;28;20045;-70
2022/01/09 03:25:11;;;;;;;7.00;3.92;;;-3.50;99.90;;;;;;5054529;28;20040;-70
2022/01/09 03:27:38;;;;;;;8.25;3.70;;;-3.50;99.90;;;;;;5054680;28;20021;-70
2022/01/09 03:30:08;;;;;;;8.98;3.80;;;-3.50;99.90;;;;;;5054420;28;20079;-70
2022/01/09 03:32:34;;;;;;;6.53;3.55;;;-3.50;99.90;;;;;;5054100;28;20462;-70
2022/01/09 03:35:00;;;;;;;5.00;3.20;;;-3.50;99.90;;;;;;5054332;28;20025;-70
2022/01/09 03:37:25;;;;;;;7.25;3.22;;;-3.50;99.90;;;;;;5054596;28;20054;-70
2022/01/09 03:39:53;;;;;;;7.15;3.78;;;-3.50;99.90;;;;;;5054232;28;20029;-70
2022/01/09 03:42:19;;;;;;;4.88;2.85;;;-3.60;99.90;;;;;;5054403;28;20385;-70
2022/01/09 03:44:44;;;;;;;4.40;2.50;;;-3.60;99.90;;;;;;5054171;28;20035;-70
2022/01/09 03:47:10;;;;;;;3.60;2.10;;;-3.60;99.90;;;;;;5052477;28;20533;-70
2022/01/09 03:49:36;;;;;;;3.75;1.88;;;-3.60;99.90;;;;;;5054030;28;20425;-70
2022/01/09 03:52:02;;;;;;;3.47;1.98;;;-3.60;99.90;;;;;;5054234;28;20029;-70
2022/01/09 03:54:28;;;;;;;4.90;2.13;;;-3.60;99.90;;;;;;5054215;28;20028;-70
2022/01/09 03:56:54;;;;;;;3.33;1.70;;;-3.60;99.90;;;;;;5054499;28;20025;-70
2022/01/09 03:59:20;;;;;;;3.10;1.73;;;-3.50;99.90;;;;;;5053940;28;20056;-70
2022/01/09 04:01:46;;;;;;;5.85;2.22;;;-3.60;99.90;;;;;;5053811;28;20083;-70
2022/01/09 04:04:12;;;;;;;3.70;1.95;;;-3.60;99.90;;;;;;5052975;28;20028;-70
2022/01/09 04:06:46;;;;;;;4.30;1.60;;;-3.60;99.90;;;;;;5052414;28;20029;-70
2022/01/09 04:09:19;;;;;;;3.67;1.83;;;-3.60;99.90;;;;;;5054055;28;20082;-70
2022/01/09 04:11:49;;;;;;;3.90;1.80;;;-3.70;99.90;;;;;;5053897;28;20044;-70
2022/01/09 04:14:15;;;;;;;3.50;1.40;;;-3.70;99.90;;;;;;5053903;28;20461;-70
2022/01/09 04:16:41;;;;;;;3.40;1.65;;;-3.70;99.90;;;;;;5053624;28;20033;-70
2022/01/09 04:19:12;;;;;;;2.90;1.55;;;-3.70;99.90;;;;;;5053830;28;20029;-70
2022/01/09 04:21:40;;;;;;;3.88;1.50;;;-3.70;99.90;;;;;;5053781;28;20499;-70
2022/01/09 04:24:05;;;;;;;2.78;1.63;;;-3.70;99.90;;;;;;5053292;28;20048;-70
2022/01/09 04:26:31;;;;;;;4.32;1.60;;;-3.70;99.90;;;;;;5053397;28;20037;-70
2022/01/09 04:28:57;;;;;;;3.05;1.63;;;-3.70;99.90;;;;;;5053426;28;20118;-70
2022/01/09 04:31:22;;;;;;;2.08;1.17;;;-3.80;99.90;;;;;;5051942;28;20384;-70
2022/01/09 04:33:48;;;;;;;2.35;1.52;;;-3.80;99.90;;;;;;5053693;28;20491;-70
2022/01/09 04:36:14;;;;;;;2.35;1.30;;;-3.90;99.90;;;;;;5053668;28;20428;-70
2022/01/09 04:38:39;;;;;;;3.53;1.60;;;-4.00;99.90;;;;;;5052196;28;20025;-70
2022/01/09 04:41:05;;;;;;;2.35;1.25;;;-4.00;99.90;;;;;;5053600;28;20381;-70
2022/01/09 04:43:31;;;;;;;2.55;1.42;;;-4.00;99.90;;;;;;5053354;28;20509;-70
2022/01/09 04:45:56;;;;;;;2.95;1.77;;;-4.00;99.90;;;;;;5053510;28;20025;-70
2022/01/09 04:48:22;;;;;;;4.32;1.60;;;-4.00;99.90;;;;;;5053133;28;20025;-70
2022/01/09 04:50:50;;;;;;;3.92;1.70;;;-4.00;99.90;;;;;;5053231;28;20024;-70
2022/01/09 04:53:16;;;;;;;4.55;2.33;;;-4.00;99.90;;;;;;5053124;28;20052;-70
2022/01/09 04:55:49;;;;;;;3.15;1.45;;;-3.90;99.90;;;;;;5053211;28;20057;-70
2022/01/09 04:58:16;;;;;;;3.28;1.63;;;-4.00;99.90;;;;;;5053443;28;20025;-70
2022/01/09 05:00:42;;;;;;;4.03;1.33;;;-3.90;99.90;;;;;;5053369;28;20029;-70
2022/01/09 05:03:08;;;;;;;3.67;1.42;;;-3.90;99.90;;;;;;5052855;28;20028;-70
2022/01/09 05:05:34;;;;;;;5.30;2.00;;;-3.90;99.90;;;;;;5053309;28;20385;-70
2022/01/09 05:08:00;;;;;;;2.92;1.27;;;-3.90;99.90;;;;;;5053632;28;20021;-70
2022/01/09 05:10:25;;;;;;;5.97;1.90;;;-3.80;99.90;;;;;;5053372;28;20021;-70
2022/01/09 05:12:52;;;;;;;4.15;1.67;;;-3.80;99.90;;;;;;5051703;28;20485;-70
2022/01/09 05:15:19;;;;;;;3.55;1.90;;;-3.80;99.90;;;;;;5054244;28;20024;-70
2022/01/09 05:17:46;;;;;;;3.53;1.80;;;-3.80;99.90;;;;;;5057048;28;20017;-70
2022/01/09 05:20:12;;;;;;;3.58;1.50;;;-3.80;99.90;;;;;;5057123;28;20051;-70
2022/01/09 05:22:38;;;;;;;3.28;1.42;;;-3.80;99.90;;;;;;5057567;28;20029;-71
2022/01/09 05:25:06;;;;;;;2.97;1.55;;;-3.70;99.90;;;;;;5055492;28;20032;-70
2022/01/09 05:27:33;;;;;;;2.38;1.27;;;-3.70;99.90;;;;;;5056683;28;20032;-70
2022/01/09 05:29:59;;;;;;;5.82;2.60;;;-3.70;99.90;;;;;;5056910;28;20024;-70
2022/01/09 05:32:25;;;;;;;4.35;2.15;;;-3.70;99.90;;;;;;5055184;28;20017;-70
2022/01/09 05:34:51;;;;;;;4.10;1.67;;;-3.70;99.90;;;;;;5056560;28;20052;-71
2022/01/09 05:37:17;;;;;;;5.10;2.03;;;-3.60;99.90;;;;;;5056805;28;20385;-71
2022/01/09 05:39:43;;;;;;;8.00;2.20;;;-3.60;99.90;;;;;;5056563;28;20485;-70
2022/01/09 05:42:11;;;;;;;16.88;6.65;;;-3.60;99.90;;;;;;5056929;28;20035;-70
2022/01/09 05:44:37;;;;;;;10.02;4.22;;;-3.60;99.90;;;;;;5056791;28;20032;-70
2022/01/09 05:47:03;;;;;;;9.70;3.95;;;-3.60;99.90;;;;;;5056176;28;20028;-70
2022/01/09 05:49:30;;;;;;;6.90;3.60;;;-3.60;99.90;;;;;;5056584;28;20100;-70
2022/01/09 05:51:56;;;;;;;7.38;4.43;;;-3.60;99.90;;;;;;5055376;28;20028;-70
2022/01/09 05:54:22;;;;;;;5.95;3.80;;;-3.60;99.90;;;;;;5056284;28;20021;-70
2022/01/09 05:56:48;;;;;;;6.38;3.58;;;-3.70;99.90;;;;;;5056323;28;20104;-70
2022/01/09 05:59:14;;;;;;;6.55;3.30;;;-3.70;99.90;;;;;;5056726;28;20025;-70
2022/01/09 06:01:40;;;;;;;3.75;2.15;;;-3.70;99.90;;;;;;5055908;28;20025;-70
2022/01/09 06:04:05;;;;;;;4.80;2.10;;;-3.70;99.90;;;;;;5054847;28;20021;-70
2022/01/09 06:06:32;;;;;;;5.50;2.58;;;-3.70;99.90;;;;;;5055989;28;20064;-70
2022/01/09 06:08:58;;;;;;;4.70;2.40;;;-3.70;99.90;;;;;;5055996;28;20385;-70
2022/01/09 06:11:24;;;;;;;4.32;2.60;;;-3.70;99.90;;;;;;5054609;28;20488;-70
2022/01/09 06:13:50;;;;;;;5.68;3.03;;;-3.70;99.90;;;;;;5056213;28;20025;-70
2022/01/09 06:16:16;;;;;;;6.43;3.45;;;-3.70;99.90;;;;;;5056151;28;20033;-70
2022/01/09 06:18:41;;;;;;;5.55;2.92;;;-3.70;99.90;;;;;;5054384;28;20025;-70
2022/01/09 06:21:07;;;;;;;6.18;3.28;;;-3.70;99.90;;;;;;5055716;28;20025;-70
2022/01/09 06:23:33;;;;;;;5.78;2.60;;;-3.70;99.90;;;;;;5055862;28;20029;-70
2022/01/09 06:25:58;;;;;;;6.22;2.70;;;-3.80;99.90;;;;;;5054666;28;20031;-70
2022/01/09 06:28:24;;;;;;;5.05;2.83;;;-3.80;99.90;;;;;;5055674;28;20017;-70
2022/01/09 06:30:50;;;;;;;4.47;2.05;;;-3.90;99.90;;;;;;5055851;28;20017;-70
2022/01/09 06:33:16;;;;;;;4.22;1.92;;;-3.90;99.90;;;;;;5055266;28;20380;-69
2022/01/09 06:35:42;;;;;;;5.30;2.10;;;-4.00;99.90;;;;;;5055751;28;20108;-69
2022/01/09 06:38:09;;;;;;;7.63;3.53;;;-4.00;99.90;;;;;;5056083;28;20097;-70
2022/01/09 06:40:35;;;;;;;6.85;3.55;;;-4.00;99.90;;;;;;5055398;28;20032;-70
2022/01/09 06:43:01;;;;;;;7.43;3.58;;;-4.00;99.90;;;;;;5055308;28;20082;-70
2022/01/09 06:45:27;;;;;;;7.00;3.20;;;-4.10;99.90;;;;;;5055215;28;20021;-70
2022/01/09 06:47:54;;;;;;;8.25;3.92;;;-4.00;99.90;;;;;;5055054;28;20029;-70
2022/01/09 06:50:21;;;;;;;7.93;3.65;;;-4.00;99.90;;;;;;5055154;28;20108;-70
2022/01/09 06:52:47;;;;;;;9.18;3.20;;;-4.00;99.90;;;;;;5055263;28;20389;-70
2022/01/09 06:55:14;;;;;;;6.32;2.40;;;-3.90;99.90;;;;;;5055137;28;20037;-70
2022/01/09 06:57:40;;;;;;;3.20;1.63;;;-4.00;99.90;;;;;;5055699;28;20377;-70
2022/01/09 07:00:08;;;;;;;3.60;1.88;;;-3.90;99.90;;;;;;5055337;28;20029;-70
2022/01/09 07:02:33;;;;;;;9.63;4.20;;;-3.80;99.90;;;;;;5054867;28;20040;-70
2022/01/09 07:04:59;;;;;;;7.82;4.05;;;-3.80;99.90;;;;;;5055296;28;20493;-70
2022/01/09 07:07:25;;;;;;;9.05;4.65;;;-3.80;99.90;;;;;;5055380;28;20167;-70
2022/01/09 07:09:51;;;;;;;7.50;4.22;;;-3.80;99.90;;;;;;5054890;28;20025;-70
2022/01/09 07:12:17;;;;;;;7.18;3.65;;;-3.80;99.90;;;;;;5054817;28;20478;-70
2022/01/09 07:14:42;;;;;;;8.52;3.90;;;-3.80;99.90;;;;;;5055118;28;20017;-70
2022/01/09 07:17:10;;;;;;;6.00;3.60;;;-3.80;99.90;;;;;;5054422;28;20096;-70
2022/01/09 07:19:37;;;;;;;10.43;4.30;;;-3.80;99.90;;;;;;5053327;28;20485;-70
2022/01/09 07:22:03;;;;;;;8.57;5.18;;;-3.80;99.90;;;;;;5054862;28;20433;-70
2022/01/09 07:24:29;;;;;;;10.75;4.97;;;-3.70;99.90;;;;;;5054495;28;20119;-70
2022/01/09 07:26:55;;;;;;;13.70;7.32;;;-3.70;99.90;;;;;;5054750;28;20112;-70
2022/01/09 07:29:21;;;;;;;13.23;6.53;;;-3.70;99.90;;;;;;5054491;28;20025;-70
2022/01/09 07:31:47;;;;;;;11.38;6.57;;;-3.70;99.90;;;;;;5054469;28;20427;-70
2022/01/09 07:34:13;;;;;;;14.57;6.60;;;-3.60;99.90;;;;;;5054947;28;20017;-70
2022/01/09 07:36:38;;;;;;;20.67;10.32;;;-3.60;99.90;;;;;;5054346;28;20029;-70
2022/01/09 07:39:04;;;;;;;59.28;27.70;;;-3.60;99.90;;;;;;5054187;28;20044;-70
2022/01/09 07:41:30;;;;;;;61.97;25.73;;;-3.50;99.90;;;;;;5054157;28;20036;-70
2022/01/09 07:43:56;;;;;;;48.63;19.25;;;-3.50;99.90;;;;;;5052882;28;20036;-70
2022/01/09 07:46:21;;;;;;;35.13;15.82;;;-3.50;99.90;;;;;;5054122;28;20029;-70
2022/01/09 07:48:47;;;;;;;24.10;11.98;;;-3.50;99.90;;;;;;5053901;28;20025;-70
2022/01/09 07:51:13;;;;;;;13.05;6.43;;;-3.50;99.90;;;;;;5053985;28;20032;-70
2022/01/09 07:53:38;;;;;;;9.95;6.40;;;-3.50;99.90;;;;;;5054022;28;20030;-70
2022/01/09 07:56:05;;;;;;;8.45;5.53;;;-3.40;99.90;;;;;;5054260;28;20025;-70
2022/01/09 07:58:31;;;;;;;7.22;2.85;;;-3.40;99.90;;;;;;5054275;28;20047;-70
2022/01/09 08:00:58;;;;;;;5.90;2.83;;;-3.40;99.90;;;;;;5053564;28;20075;-70
2022/01/09 08:03:23;;;;;;;5.78;2.50;;;-3.30;99.90;;;;;;5051597;28;20477;-70
2022/01/09 08:05:49;;;;;;;11.75;5.30;;;-3.30;99.90;;;;;;5052032;28;20070;-70
2022/01/09 08:08:15;;;;;;;7.55;4.13;;;-3.20;99.90;;;;;;5052472;28;20025;-70
2022/01/09 08:10:41;;;;;;;12.95;4.82;;;-3.20;99.90;;;;;;5053124;28;20017;-70
2022/01/09 08:13:06;;;;;;;11.60;5.30;;;-3.10;99.90;;;;;;5053567;28;20389;-70
2022/01/09 08:15:32;;;;;;;10.43;5.18;;;-3.10;99.90;;;;;;5053847;28;20017;-70
2022/01/09 08:17:58;;;;;;;7.03;4.10;;;-3.10;99.90;;;;;;5053413;28;20025;-70
2022/01/09 08:20:23;;;;;;;8.38;3.65;;;-3.00;99.90;;;;;;5064822;28;20021;-70
2022/01/09 08:22:49;;;;;;;6.40;3.25;;;-3.00;99.90;;;;;;5073825;28;20021;-70
2022/01/09 08:25:17;;;;;;;13.95;7.00;;;-3.00;99.90;;;;;;5073516;28;20157;-70
2022/01/09 08:27:44;;;;;;;11.88;6.40;;;-2.90;99.90;;;;;;5073410;28;20548;-70
2022/01/09 08:30:11;;;;;;;13.60;7.28;;;-2.90;99.90;;;;;;5060079;28;20132;-70
2022/01/09 08:32:37;;;;;;;12.27;6.10;;;-2.90;99.90;;;;;;5053131;28;20032;-70
2022/01/09 08:35:04;;;;;;;11.20;5.40;;;-2.90;99.90;;;;;;5053674;28;20028;-70
2022/01/09 08:37:30;;;;;;;9.95;4.10;;;-2.90;99.90;;;;;;5052112;28;20079;-70
2022/01/09 08:39:56;;;;;;;6.72;3.97;;;-2.80;99.90;;;;;;5054299;28;20040;-70
2022/01/09 08:42:22;;;;;;;7.45;4.25;;;-2.80;99.90;;;;;;5053211;28;20032;-70
2022/01/09 08:44:47;;;;;;;10.43;5.35;;;-2.70;99.90;;;;;;5054975;28;20036;-70
2022/01/09 08:47:13;;;;;;;11.27;6.07;;;-2.60;99.90;;;;;;5064519;28;20028;-70
2022/01/09 08:49:39;;;;;;;10.90;6.00;;;-2.50;99.90;;;;;;5065576;28;20029;-70
2022/01/09 08:52:05;;;;;;;12.00;6.10;;;-2.50;99.90;;;;;;5063084;28;20426;-70
2022/01/09 08:54:31;;;;;;;18.98;7.53;;;-2.40;99.90;;;;;;5058060;28;20079;-70
2022/01/09 08:56:57;;;;;;;32.55;11.15;;;-2.40;99.90;;;;;;5064311;28;20033;-70
2022/01/09 08:59:23;;;;;;;31.02;12.68;;;-2.40;99.90;;;;;;5063562;28;20115;-70
2022/01/09 09:01:49;;;;;;;30.55;12.30;;;-2.30;99.90;;;;;;5071825;28;20067;-71
2022/01/09 09:04:15;;;;;;;28.45;11.38;;;-2.30;99.90;;;;;;5071741;28;20024;-70
2022/01/09 09:06:42;;;;;;;29.05;10.82;;;-2.30;99.90;;;;;;5072973;28;20103;-70
2022/01/09 09:09:08;;;;;;;24.95;9.73;;;-2.20;99.90;;;;;;5073046;28;20024;-70
2022/01/09 09:11:35;;;;;;;19.00;8.00;;;-2.20;99.90;;;;;;5071682;28;20027;-71
2022/01/09 09:14:02;;;;;;;18.58;8.20;;;-2.10;99.90;;;;;;5073316;28;20020;-71
2022/01/09 09:16:28;;;;;;;13.80;6.60;;;-2.10;99.90;;;;;;5072958;28;20024;-71
2022/01/09 09:18:53;;;;;;;17.65;7.07;;;-2.10;99.90;;;;;;5072700;28;20427;-70
2022/01/09 09:21:19;;;;;;;13.27;6.80;;;-2.10;99.90;;;;;;5053424;28;20025;-70
2022/01/09 09:23:45;;;;;;;12.57;6.60;;;-2.00;99.90;;;;;;5052976;28;20033;-71
2022/01/09 09:26:11;;;;;;;14.20;6.65;;;-2.00;99.90;;;;;;5052757;28;20549;-70
2022/01/09 09:28:37;;;;;;;14.18;7.53;;;-2.00;99.90;;;;;;5053076;28;20021;-71
2022/01/09 09:31:03;;;;;;;14.55;6.93;;;-2.00;99.90;;;;;;5052802;28;20021;-70
2022/01/09 09:33:29;;;;;;;12.05;6.20;;;-1.90;99.90;;;;;;5052479;28;20017;-70
2022/01/09 09:35:58;;;;;;;14.27;6.78;;;-1.90;99.90;;;;;;5051489;28;20032;-70
2022/01/09 09:38:24;;;;;;;11.73;6.30;;;-1.90;99.90;;;;;;5052804;28;20131;-71
2022/01/09 09:40:50;;;;;;;15.68;7.18;;;-1.90;99.90;;;;;;5053014;28;20385;-70
2022/01/09 09:43:17;;;;;;;13.18;5.82;;;-1.90;99.90;;;;;;5052654;28;20076;-70
2022/01/09 09:45:43;;;;;;;16.23;7.95;;;-1.90;99.90;;;;;;5052860;28;20409;-70
2022/01/09 09:48:09;;;;;;;22.83;10.93;;;-1.80;99.90;;;;;;5052372;28;20039;-70
2022/01/09 09:50:35;;;;;;;24.65;9.45;;;-1.80;99.90;;;;;;5052585;28;20028;-70
2022/01/09 09:53:02;;;;;;;20.88;7.93;;;-1.80;99.90;;;;;;5051291;28;20543;-70
2022/01/09 09:55:28;;;;;;;17.38;7.70;;;-1.80;99.90;;;;;;5052806;28;20025;-70
2022/01/09 09:57:53;;;;;;;29.88;13.10;;;-1.70;99.90;;;;;;5052785;28;20070;-69
2022/01/09 10:00:21;;;;;;;35.67;17.75;;;-1.70;99.90;;;;;;5051223;28;20025;-70
2022/01/09 10:02:57;;;;;;;27.70;10.77;;;-1.70;99.90;;;;;;5053722;28;20083;-70
2022/01/09 10:05:39;;;;;;;19.13;9.23;;;-1.70;99.90;;;;;;5056378;28;20419;-70
2022/01/09 10:08:15;;;;;;;16.50;8.40;;;-1.60;99.90;;;;;;5054795;28;20055;-69
2022/01/09 10:10:41;;;;;;;16.25;6.97;;;-1.60;99.90;;;;;;5054821;28;20083;-71
2022/01/09 10:13:13;;;;;;;12.50;5.68;;;-1.60;99.90;;;;;;5055720;28;20021;-70
2022/01/09 10:15:50;;;;;;;10.23;5.90;;;-1.60;99.90;;;;;;5054573;28;20386;-70
2022/01/09 10:18:45;;;;;;;9.32;5.15;;;-1.50;99.90;;;;;;5054720;28;20029;-70
2022/01/09 10:21:19;;;;;;;10.88;5.55;;;-1.50;99.90;;;;;;5055030;28;20035;-70
2022/01/09 10:24:10;;;;;;;9.23;5.40;;;-1.50;99.90;;;;;;5053687;28;20236;-70
2022/01/09 10:26:38;;;;;;;11.02;4.75;;;-1.40;99.90;;;;;;5054891;28;20135;-71
2022/01/09 10:29:06;;;;;;;9.98;4.25;;;-1.40;99.90;;;;;;5055960;28;20032;-70
2022/01/09 10:31:42;;;;;;;7.25;4.00;;;-1.40;99.90;;;;;;5055815;28;20366;-70
2022/01/09 10:34:08;;;;;;;7.25;3.95;;;-1.40;99.90;;;;;;5053798;28;20122;-70
2022/01/09 10:36:41;;;;;;;9.15;4.80;;;-1.40;99.90;;;;;;5054014;28;20105;-70
2022/01/09 10:39:17;;;;;;;10.63;4.22;;;-1.30;99.90;;;;;;5052686;28;20047;-70
2022/01/09 10:41:58;;;;;;;7.57;3.90;;;-1.30;99.90;;;;;;5055200;28;20029;-69
2022/01/09 10:44:27;;;;;;;7.87;3.80;;;-1.30;99.90;;;;;;5055454;28;20478;-70
2022/01/09 10:46:59;;;;;;;13.35;6.93;;;-1.30;99.90;;;;;;5054108;28;20435;-69
2022/01/09 10:49:51;;;;;;;31.70;11.57;;;-1.30;99.90;;;;;;5055047;28;20017;-69
2022/01/09 10:52:22;;;;;;;17.17;8.00;;;-1.20;99.90;;;;;;5055300;28;20017;-70
2022/01/09 10:54:51;;;;;;;13.65;6.97;;;-1.20;99.90;;;;;;5055235;28;20016;-69
2022/01/09 10:57:23;;;;;;;29.95;10.85;;;-1.20;99.90;;;;;;5055456;28;20487;-69
2022/01/09 10:59:50;;;;;;;20.08;12.18;;;-1.20;99.90;;;;;;5053868;28;20110;-70
2022/01/09 11:02:16;;;;;;;22.73;12.30;;;-1.20;99.90;;;;;;5054978;28;20035;-70
2022/01/09 11:04:44;;;;;;;20.20;10.80;;;-1.10;99.90;;;;;;5054741;28;20028;-70
2022/01/09 11:07:11;;;;;;;15.63;9.52;;;-1.10;99.90;;;;;;5055154;28;20054;-70
2022/01/09 11:09:43;;;;;;;19.48;9.93;;;-1.00;99.90;;;;;;5054986;28;20112;-69
2022/01/09 11:12:10;;;;;;;20.05;11.55;;;-1.00;99.90;;;;;;5054619;28;20021;-69
2022/01/09 11:14:40;;;;;;;25.80;13.80;;;-0.90;99.90;;;;;;5055079;28;20025;-69
2022/01/09 11:17:08;;;;;;;16.15;9.18;;;-0.90;99.90;;;;;;5055003;28;20021;-69
2022/01/09 11:19:35;;;;;;;23.20;12.85;;;-0.90;99.90;;;;;;5054393;28;20029;-69
2022/01/09 11:22:06;;;;;;;21.05;10.38;;;-0.80;99.90;;;;;;5054747;28;20116;-70
2022/01/09 11:24:52;;;;;;;17.15;10.35;;;-0.80;99.90;;;;;;5054614;28;20378;-69
2022/01/09 11:27:25;;;;;;;12.88;7.97;;;-0.80;99.90;;;;;;5054513;28;20025;-69
2022/01/09 11:30:21;;;;;;;17.80;8.45;;;-0.80;99.90;;;;;;5054820;28;20104;-70
2022/01/09 11:33:10;;;;;;;16.60;9.02;;;-0.70;99.90;;;;;;5054334;28;20017;-70
2022/01/09 11:35:51;;;;;;;21.90;10.60;;;-0.70;99.90;;;;;;5054384;28;20021;-70
2022/01/09 11:38:47;;;;;;;15.60;8.27;;;-0.70;99.90;;;;;;5053008;28;20017;-70
2022/01/09 11:41:26;;;;;;;16.00;8.55;;;-0.70;99.90;;;;;;5054212;28;20252;-70
2022/01/09 11:43:52;;;;;;;14.00;8.90;;;-0.60;99.90;;;;;;5054475;28;20078;-70
2022/01/09 11:46:18;;;;;;;16.63;9.50;;;-0.60;99.90;;;;;;5054101;28;20029;-70
2022/01/09 11:48:58;;;;;;;13.48;8.63;;;-0.60;99.90;;;;;;5053860;28;20066;-70
2022/01/09 11:51:28;;;;;;;17.35;8.98;;;-0.50;99.90;;;;;;5054004;28;20477;-70
2022/01/09 11:53:55;;;;;;;24.30;12.07;;;-0.50;99.90;;;;;;5054032;28;20156;-70
2022/01/09 11:56:48;;;;;;;22.45;11.60;;;-0.50;99.90;;;;;;5053982;28;20028;-70
2022/01/09 11:59:28;;;;;;;21.52;10.45;;;-0.40;99.90;;;;;;5053916;28;20070;-70
2022/01/09 12:02:04;;;;;;;19.70;10.00;;;-0.30;99.90;;;;;;5054408;28;20056;-70
2022/01/09 12:04:35;;;;;;;21.48;9.38;;;-0.30;99.90;;;;;;5053914;28;20071;-70
2022/01/09 12:07:07;;;;;;;17.45;8.98;;;-0.20;99.90;;;;;;5053752;28;20032;-70
2022/01/09 12:09:36;;;;;;;28.27;14.90;;;-0.20;99.90;;;;;;5054029;28;20377;-70
2022/01/09 12:12:11;;;;;;;31.48;16.52;;;-0.20;99.90;;;;;;5052386;28;20485;-70
2022/01/09 12:14:45;;;;;;;22.98;14.05;;;-0.20;99.90;;;;;;5053697;28;20032;-70
2022/01/09 12:17:23;;;;;;;24.45;14.27;;;-0.20;99.90;;;;;;5054216;28;20029;-70
2022/01/09 12:20:13;;;;;;;26.95;13.82;;;-0.20;99.90;;;;;;5059085;28;20035;-70
2022/01/09 12:25:36;;;;;;;23.15;11.20;;;-0.20;99.90;;;;;;5073247;28;20349;-69
2022/01/09 12:28:11;;;;;;;23.70;11.02;;;-0.30;99.90;;;;;;5073467;28;20059;-70
2022/01/09 12:33:18;;;;;;;22.17;11.93;;;-0.30;99.90;;;;;;5073495;28;20476;-70
2022/01/09 12:36:08;;;;;;;22.40;10.68;;;-0.30;99.90;;;;;;5074001;28;20031;-70
2022/01/09 12:38:35;;;;;;;24.83;12.57;;;-0.30;99.90;;;;;;5071815;28;20587;-70
2022/01/09 12:41:04;;;;;;;26.98;14.93;;;-0.30;99.90;;;;;;5073433;28;20025;-70
2022/01/09 12:43:31;;;;;;;33.95;17.58;;;-0.30;99.90;;;;;;5073570;28;20059;-70
2022/01/09 12:45:57;;;;;;;33.63;17.08;;;-0.30;99.90;;;;;;5073437;28;20055;-70
2022/01/09 12:48:28;;;;;;;29.13;12.88;;;-0.30;99.90;;;;;;5073064;28;20472;-69
2022/01/09 12:51:10;;;;;;;22.00;11.07;;;-0.20;99.90;;;;;;5071308;28;20090;-70